createdAt,value
2022-11-13T00:02:08.750Z,45.38
2022-11-13T00:04:57.455Z,45.42
2022-11-13T00:07:46.274Z,45.47
2022-11-13T00:10:34.979Z,45.58
2022-11-13T00:13:29.036Z,45.58
2022-11-13T00:16:20.722Z,45.44
2022-11-13T00:19:10.704Z,45.44
2022-11-13T00:22:00.255Z,45.59
2022-11-13T00:24:48.894Z,45.44
2022-11-13T00:27:37.548Z,45.64
2022-11-13T00:30:26.188Z,45.79
2022-11-13T00:33:26.500Z,45.70
2022-11-13T00:36:26.724Z,45.73
2022-11-13T00:39:15.541Z,45.84
2022-11-13T00:42:04.360Z,45.59
2022-11-13T00:44:53.218Z,45.71
2022-11-13T00:47:41.930Z,45.81
2022-11-13T00:50:30.534Z,45.92
2022-11-13T00:53:20.821Z,45.42
2022-11-13T00:56:09.891Z,45.51
2022-11-13T00:58:58.845Z,45.57
2022-11-13T01:01:47.648Z,45.53
2022-11-13T01:04:36.328Z,45.50
2022-11-13T01:07:24.891Z,45.68
2022-11-13T01:10:14.947Z,45.97
2022-11-13T01:13:04.073Z,45.63
2022-11-13T01:15:52.726Z,45.59
2022-11-13T01:18:42.764Z,45.85
2022-11-13T01:21:31.568Z,45.91
2022-11-13T01:24:20.216Z,45.80
2022-11-13T01:27:10.374Z,46.00
2022-11-13T01:29:58.950Z,45.67
2022-11-13T01:32:47.713Z,45.58
2022-11-13T01:35:36.361Z,45.98
2022-11-13T01:38:25.141Z,45.89
2022-11-13T01:41:23.111Z,45.64
2022-11-13T01:44:15.484Z,45.89
2022-11-13T01:47:04.969Z,45.76
2022-11-13T01:49:55.955Z,45.98
2022-11-13T01:52:44.726Z,45.94
2022-11-13T01:55:33.352Z,45.94
2022-11-13T01:58:22.216Z,45.86
2022-11-13T02:01:12.182Z,45.63
2022-11-13T02:04:00.824Z,45.99
2022-11-13T02:06:51.550Z,45.68
2022-11-13T02:09:42.648Z,45.88
2022-11-13T02:12:35.371Z,45.96
2022-11-13T02:15:26.602Z,45.58
2022-11-13T02:18:17.180Z,45.88
2022-11-13T02:21:12.417Z,45.42
2022-11-13T02:24:13.830Z,45.85
2022-11-13T02:27:05.100Z,45.64
2022-11-13T02:29:53.741Z,46.02
2022-11-13T02:32:45.370Z,46.04
2022-11-13T02:35:35.769Z,45.61
2022-11-13T02:38:24.379Z,45.94
2022-11-13T02:41:14.342Z,45.52
2022-11-13T02:44:02.922Z,45.69
2022-11-13T02:46:51.551Z,45.97
2022-11-13T02:49:40.143Z,45.74
2022-11-13T02:52:29.034Z,45.63
2022-11-13T02:55:17.865Z,46.02
2022-11-13T02:58:07.817Z,46.03
2022-11-13T03:00:56.495Z,45.58
2022-11-13T03:03:57.171Z,45.88
2022-11-13T03:06:46.628Z,45.74
2022-11-13T03:09:35.277Z,45.66
2022-11-13T03:12:23.889Z,45.69
2022-11-13T03:15:14.130Z,45.74
2022-11-13T03:18:04.863Z,45.86
2022-11-13T03:20:54.182Z,46.16
2022-11-13T03:23:45.007Z,46.10
2022-11-13T03:26:33.642Z,46.10
2022-11-13T03:29:22.197Z,45.92
2022-11-13T03:32:12.371Z,45.76
2022-11-13T03:35:00.910Z,45.90
2022-11-13T03:37:49.505Z,45.84
2022-11-13T03:40:39.281Z,45.86
2022-11-13T03:43:28.268Z,45.77
2022-11-13T03:46:16.935Z,45.78
2022-11-13T03:49:06.906Z,45.79
2022-11-13T03:51:55.470Z,46.07
2022-11-13T03:54:44.097Z,45.77
2022-11-13T03:57:33.126Z,45.86
2022-11-13T04:00:21.963Z,45.89
2022-11-13T04:03:10.744Z,45.78
2022-11-13T04:06:00.744Z,45.68
2022-11-13T04:08:49.281Z,45.76
2022-11-13T04:11:37.915Z,45.78
2022-11-13T04:14:26.547Z,45.95
2022-11-13T04:17:15.145Z,45.78
2022-11-13T04:20:03.822Z,45.92
2022-11-13T04:22:53.841Z,46.23
2022-11-13T04:25:42.416Z,45.80
2022-11-13T04:28:31.350Z,45.94
2022-11-13T04:31:20.216Z,45.81
2022-11-13T04:34:10.070Z,46.06
2022-11-13T04:36:58.704Z,45.69
2022-11-13T04:39:48.765Z,45.46
2022-11-13T04:42:51.715Z,45.87
2022-11-13T04:45:40.437Z,45.55
2022-11-13T04:48:29.484Z,45.60
2022-11-13T04:51:18.405Z,45.99
2022-11-13T04:54:07.148Z,45.82
2022-11-13T04:56:57.313Z,45.66
2022-11-13T04:59:45.905Z,45.58
2022-11-13T05:02:34.728Z,46.14
2022-11-13T05:05:23.417Z,45.67
2022-11-13T05:08:12.760Z,45.62
2022-11-13T05:11:01.730Z,46.07
2022-11-13T05:13:51.836Z,45.68
2022-11-13T05:16:40.764Z,45.83
2022-11-13T05:19:29.398Z,45.89
2022-11-13T05:22:18.007Z,45.79
2022-11-13T05:25:07.025Z,46.10
2022-11-13T05:27:55.634Z,46.09
2022-11-13T05:30:45.663Z,45.60
2022-11-13T05:33:34.276Z,46.22
2022-11-13T05:36:23.743Z,45.80
2022-11-13T05:39:12.959Z,45.84
2022-11-13T05:42:01.547Z,45.71
2022-11-13T05:44:50.144Z,45.78
2022-11-13T05:47:40.142Z,46.06
2022-11-13T05:50:28.855Z,45.89
2022-11-13T05:53:17.487Z,45.76
2022-11-13T05:56:08.026Z,45.62
2022-11-13T05:58:57.086Z,45.87
2022-11-13T06:01:45.875Z,45.91
2022-11-13T06:04:36.277Z,45.67
2022-11-13T06:07:24.932Z,45.62
2022-11-13T06:10:13.666Z,45.83
2022-11-13T06:13:02.298Z,45.71
2022-11-13T06:15:51.040Z,46.17
2022-11-13T06:18:40.262Z,46.12
2022-11-13T06:21:32.217Z,45.82
2022-11-13T06:24:20.842Z,46.03
2022-11-13T06:27:09.494Z,45.91
2022-11-13T06:29:58.282Z,45.97
2022-11-13T06:32:47.004Z,45.81
2022-11-13T06:35:35.848Z,45.97
2022-11-13T06:38:26.048Z,45.88
2022-11-13T06:41:16.848Z,46.22
2022-11-13T06:44:05.716Z,46.09
2022-11-13T06:46:54.440Z,45.72
2022-11-13T06:49:43.197Z,46.22
2022-11-13T06:52:31.808Z,45.97
2022-11-13T06:55:21.898Z,46.10
2022-11-13T06:58:10.577Z,45.69
2022-11-13T07:00:59.440Z,45.76
2022-11-13T07:03:48.120Z,45.80
2022-11-13T07:06:40.404Z,45.97
2022-11-13T07:09:29.300Z,45.75
2022-11-13T07:12:19.242Z,45.79
2022-11-13T07:15:08.565Z,45.81
2022-11-13T07:17:57.332Z,45.95
2022-11-13T07:20:46.316Z,45.79
2022-11-13T07:23:37.045Z,46.15
2022-11-13T07:26:26.024Z,46.09
2022-11-13T07:29:16.131Z,46.26
2022-11-13T07:32:04.769Z,46.01
2022-11-13T07:34:53.330Z,45.77
2022-11-13T07:37:42.011Z,45.60
2022-11-13T07:40:30.651Z,46.06
2022-11-13T07:43:19.465Z,45.88
2022-11-13T07:46:09.528Z,45.73
2022-11-13T07:48:58.185Z,45.87
2022-11-13T07:51:46.890Z,45.77
2022-11-13T07:54:35.620Z,45.91
2022-11-13T07:57:24.375Z,45.88
2022-11-13T08:00:13.986Z,45.82
2022-11-13T08:03:08.009Z,45.49
2022-11-13T08:06:01.973Z,45.79
2022-11-13T08:08:50.642Z,45.61
2022-11-13T08:11:39.446Z,45.52
2022-11-13T08:14:28.020Z,45.26
2022-11-13T08:17:16.747Z,44.94
2022-11-13T08:20:08.149Z,45.31
2022-11-13T08:22:58.651Z,44.87
2022-11-13T08:25:47.723Z,44.45
2022-11-13T08:28:37.896Z,44.36
2022-11-13T08:31:26.979Z,44.21
2022-11-13T08:34:15.708Z,38.60
2022-11-13T08:37:05.753Z,35.28
2022-11-13T08:39:54.460Z,34.69
2022-11-13T08:42:43.248Z,33.85
2022-11-13T08:45:32.606Z,33.57
2022-11-13T08:48:21.419Z,32.53
2022-11-13T08:51:10.086Z,32.26
2022-11-13T08:54:00.071Z,32.78
2022-11-13T08:56:55.645Z,32.29
2022-11-13T08:59:44.776Z,31.34
2022-11-13T09:02:33.497Z,31.15
2022-11-13T09:05:22.103Z,31.38
2022-11-13T09:08:11.008Z,31.09
2022-11-13T09:11:04.927Z,33.09
2022-11-13T09:13:53.805Z,34.18
2022-11-13T09:16:42.548Z,35.43
2022-11-13T09:19:31.317Z,36.01
2022-11-13T09:22:19.926Z,35.93
2022-11-13T09:25:09.346Z,36.52
2022-11-13T09:28:01.309Z,36.58
2022-11-13T09:30:49.979Z,37.10
2022-11-13T09:33:38.718Z,37.86
2022-11-13T09:36:27.296Z,38.08
2022-11-13T09:39:17.032Z,38.31
2022-11-13T09:42:13.085Z,38.30
2022-11-13T09:45:07.226Z,38.60
2022-11-13T09:47:56.370Z,38.84
2022-11-13T09:50:45.127Z,38.74
2022-11-13T09:53:39.514Z,38.84
2022-11-13T09:56:31.690Z,38.94
2022-11-13T09:59:26.837Z,39.22
2022-11-13T10:02:23.146Z,39.42
2022-11-13T10:05:15.668Z,39.23
2022-11-13T10:08:08.738Z,39.30
2022-11-13T10:11:03.551Z,39.34
2022-11-13T10:13:55.020Z,39.55
2022-11-13T10:16:46.885Z,39.45
2022-11-13T10:19:41.333Z,39.44
2022-11-13T10:22:34.592Z,39.08
2022-11-13T10:25:25.100Z,39.42
2022-11-13T10:28:48.149Z,39.88
2022-11-13T10:31:26.255Z,39.91
2022-11-13T10:34:15.846Z,39.92
2022-11-13T10:37:17.625Z,39.81
2022-11-13T10:40:07.091Z,39.51
2022-11-13T10:42:55.924Z,39.54
2022-11-13T10:45:57.463Z,40.21
2022-11-13T10:48:46.134Z,39.61
2022-11-13T10:51:35.966Z,39.71
2022-11-13T10:54:28.834Z,39.77
2022-11-13T10:57:26.973Z,39.74
2022-11-13T11:00:24.578Z,39.80
2022-11-13T11:03:17.836Z,39.85
2022-11-13T11:06:07.153Z,39.70
2022-11-13T11:08:55.905Z,39.93
2022-11-13T11:12:18.846Z,39.90
2022-11-13T11:15:21.880Z,40.54
2022-11-13T11:18:22.814Z,40.56
2022-11-13T11:21:14.677Z,40.54
2022-11-13T11:24:07.561Z,40.28
2022-11-13T11:27:01.377Z,40.66
2022-11-13T11:29:53.759Z,39.83
2022-11-13T11:32:44.873Z,39.74
2022-11-13T11:35:40.965Z,39.70
2022-11-13T11:38:34.908Z,39.80
2022-11-13T11:41:29.574Z,39.78
2022-11-13T11:44:24.794Z,39.98
2022-11-13T11:47:16.741Z,39.86
2022-11-13T11:50:08.659Z,39.77
2022-11-13T11:53:02.040Z,39.95
2022-11-13T11:56:01.105Z,39.92
2022-11-13T11:59:06.963Z,40.18
2022-11-13T12:02:20.173Z,40.04
2022-11-13T12:05:20.688Z,40.08
2022-11-13T12:08:17.553Z,40.15
2022-11-13T12:11:13.323Z,40.19
2022-11-13T12:14:07.572Z,40.21
2022-11-13T12:17:17.163Z,40.23
2022-11-13T12:20:18.830Z,40.54
2022-11-13T12:23:17.010Z,40.42
2022-11-13T12:26:11.039Z,40.50
2022-11-13T12:29:01.982Z,40.74
2022-11-13T12:31:58.053Z,40.89
2022-11-13T12:34:51.540Z,40.73
2022-11-13T12:37:44.402Z,40.89
2022-11-13T12:40:41.212Z,41.17
2022-11-13T12:43:44.833Z,41.16
2022-11-13T12:46:37.982Z,41.10
2022-11-13T12:49:32.101Z,40.89
2022-11-13T12:52:24.395Z,41.07
2022-11-13T12:55:28.163Z,40.80
2022-11-13T12:58:21.530Z,40.96
2022-11-13T13:01:18.636Z,40.88
2022-11-13T13:04:45.189Z,40.83
2022-11-13T13:07:50.187Z,40.73
2022-11-13T13:10:50.614Z,40.91
2022-11-13T13:13:44.993Z,40.78
2022-11-13T13:16:33.662Z,40.96
2022-11-13T13:19:28.381Z,41.06
2022-11-13T13:22:27.054Z,41.37
2022-11-13T13:25:28.122Z,41.26
2022-11-13T13:28:21.553Z,41.46
2022-11-13T13:31:32.942Z,41.66
2022-11-13T13:34:33.728Z,41.45
2022-11-13T13:37:31.720Z,41.39
2022-11-13T13:40:31.320Z,41.38
2022-11-13T13:43:34.309Z,41.71
2022-11-13T13:46:24.599Z,42.00
2022-11-13T13:49:16.233Z,41.69
2022-11-13T13:52:05.389Z,41.75
2022-11-13T13:54:54.193Z,41.83
2022-11-13T13:57:44.766Z,41.84
2022-11-13T14:00:33.462Z,42.03
2022-11-13T14:03:23.544Z,40.86
2022-11-13T14:06:21.200Z,40.63
2022-11-13T14:09:10.955Z,40.43
2022-11-13T14:12:00.883Z,40.70
2022-11-13T14:14:53.588Z,40.72
2022-11-13T14:17:42.263Z,40.63
2022-11-13T14:20:43.085Z,40.53
2022-11-13T14:23:34.283Z,40.56
2022-11-13T14:26:23.006Z,40.54
2022-11-13T14:29:23.303Z,40.64
2022-11-13T14:32:15.473Z,40.68
2022-11-13T14:35:05.096Z,40.59
2022-11-13T14:37:55.393Z,40.68
2022-11-13T14:40:48.427Z,40.94
2022-11-13T14:43:36.979Z,40.92
2022-11-13T14:46:31.047Z,40.64
2022-11-13T14:49:30.175Z,40.60
2022-11-13T14:52:27.197Z,40.18
2022-11-13T14:55:23.341Z,40.53
2022-11-13T14:58:15.016Z,39.38
2022-11-13T15:01:16.237Z,39.04
2022-11-13T15:04:04.929Z,38.91
2022-11-13T15:06:56.456Z,38.71
2022-11-13T15:09:46.370Z,39.12
2022-11-13T15:12:35.036Z,39.49
2022-11-13T15:15:27.485Z,39.54
2022-11-13T15:18:18.932Z,39.76
2022-11-13T15:21:08.198Z,39.35
2022-11-13T15:24:01.104Z,39.57
2022-11-13T15:26:49.870Z,39.54
2022-11-13T15:29:38.623Z,39.52
2022-11-13T15:32:28.993Z,39.46
2022-11-13T15:35:20.200Z,39.68
2022-11-13T15:38:08.934Z,39.74
2022-11-13T15:40:59.062Z,39.45
2022-11-13T15:43:50.053Z,39.28
2022-11-13T15:46:38.819Z,39.49
2022-11-13T15:49:27.659Z,38.99
2022-11-13T15:52:16.447Z,38.53
2022-11-13T15:55:06.318Z,39.28
2022-11-13T15:57:57.886Z,39.62
2022-11-13T16:00:46.696Z,39.83
2022-11-13T16:03:40.053Z,39.27
2022-11-13T16:06:30.381Z,39.88
2022-11-13T16:09:19.426Z,39.98
2022-11-13T16:12:08.484Z,39.47
2022-11-13T16:14:58.585Z,40.05
2022-11-13T16:17:49.476Z,40.47
2022-11-13T16:20:38.473Z,40.81
2022-11-13T16:23:27.684Z,40.82
2022-11-13T16:26:19.328Z,40.32
2022-11-13T16:29:18.527Z,40.12
2022-11-13T16:32:14.266Z,39.90
2022-11-13T16:35:02.998Z,40.00
2022-11-13T16:37:51.738Z,40.36
2022-11-13T16:40:41.656Z,40.18
2022-11-13T16:43:30.963Z,40.37
2022-11-13T16:46:22.240Z,40.43
2022-11-13T16:49:19.059Z,40.76
2022-11-13T16:52:08.460Z,41.07
2022-11-13T16:55:00.994Z,41.24
2022-11-13T16:57:52.664Z,41.11
2022-11-13T17:00:41.532Z,40.58
2022-11-13T17:03:30.755Z,41.13
2022-11-13T17:06:26.609Z,40.76
2022-11-13T17:09:15.865Z,40.78
2022-11-13T17:12:04.700Z,40.86
2022-11-13T17:15:10.266Z,40.64
2022-11-13T17:17:59.249Z,40.82
2022-11-13T17:20:51.855Z,40.38
2022-11-13T17:23:41.912Z,40.43
2022-11-13T17:26:31.278Z,40.67
2022-11-13T17:29:19.855Z,40.68
2022-11-13T17:32:08.524Z,39.93
2022-11-13T17:34:57.197Z,39.92
2022-11-13T17:37:45.842Z,40.36
2022-11-13T17:40:36.361Z,40.61
2022-11-13T17:43:25.001Z,41.02
2022-11-13T17:46:15.675Z,41.47
2022-11-13T17:49:04.589Z,41.28
2022-11-13T17:51:53.214Z,41.06
2022-11-13T17:54:41.880Z,41.16
2022-11-13T17:57:33.302Z,41.35
2022-11-13T18:00:21.940Z,41.35
2022-11-13T18:03:10.521Z,41.69
2022-11-13T18:05:59.196Z,42.18
2022-11-13T18:08:47.973Z,42.46
2022-11-13T18:11:36.761Z,42.40
2022-11-13T18:14:26.792Z,42.71
2022-11-13T18:17:15.373Z,42.94
2022-11-13T18:20:04.055Z,43.34
2022-11-13T18:22:52.693Z,43.17
2022-11-13T18:25:41.345Z,43.00
2022-11-13T18:28:29.937Z,42.94
2022-11-13T18:31:21.210Z,42.84
2022-11-13T18:34:12.694Z,43.13
2022-11-13T18:37:01.353Z,43.23
2022-11-13T18:39:50.101Z,43.18
2022-11-13T18:42:38.784Z,43.24
2022-11-13T18:45:27.541Z,43.37
2022-11-13T18:48:17.696Z,42.69
2022-11-13T18:51:10.790Z,42.08
2022-11-13T18:53:59.723Z,41.88
2022-11-13T18:56:48.325Z,41.68
2022-11-13T18:59:37.058Z,41.76
2022-11-13T19:02:25.795Z,41.87
2022-11-13T19:05:16.782Z,41.49
2022-11-13T19:08:05.730Z,41.42
2022-11-13T19:10:54.394Z,41.48
2022-11-13T19:13:44.582Z,41.33
2022-11-13T19:16:34.781Z,41.96
2022-11-13T19:19:24.991Z,42.74
2022-11-13T19:22:14.978Z,42.77
2022-11-13T19:25:03.601Z,43.12
2022-11-13T19:27:54.109Z,43.30
2022-11-13T19:30:46.440Z,43.26
2022-11-13T19:33:35.409Z,43.57
2022-11-13T19:36:24.895Z,43.36
2022-11-13T19:39:15.648Z,43.51
2022-11-13T19:42:04.239Z,43.41
2022-11-13T19:44:52.882Z,43.44
2022-11-13T19:47:41.466Z,43.35
2022-11-13T19:50:30.195Z,43.60
2022-11-13T19:53:18.909Z,43.54
2022-11-13T19:56:09.620Z,43.70
2022-11-13T19:58:58.458Z,43.21
2022-11-13T20:01:47.142Z,43.50
2022-11-13T20:04:35.736Z,43.51
2022-11-13T20:07:24.594Z,43.37
2022-11-13T20:10:13.244Z,43.38
2022-11-13T20:13:03.219Z,43.75
2022-11-13T20:15:55.146Z,43.77
2022-11-13T20:18:44.649Z,43.36
2022-11-13T20:21:33.281Z,43.24
2022-11-13T20:24:22.180Z,43.74
2022-11-13T20:27:10.879Z,43.51
2022-11-13T20:30:04.669Z,43.48
2022-11-13T20:32:53.331Z,43.59
2022-11-13T20:35:45.046Z,43.68
2022-11-13T20:38:34.228Z,43.64
2022-11-13T20:41:24.064Z,43.80
2022-11-13T20:44:14.593Z,43.53
2022-11-13T20:47:04.769Z,43.97
2022-11-13T20:49:53.354Z,43.77
2022-11-13T20:52:42.005Z,43.80
2022-11-13T20:55:30.645Z,43.85
2022-11-13T20:58:19.282Z,44.13
2022-11-13T21:01:09.271Z,43.94
2022-11-13T21:03:59.555Z,43.97
2022-11-13T21:06:48.399Z,44.01
2022-11-13T21:09:37.067Z,44.25
2022-11-13T21:12:25.696Z,44.57
2022-11-13T21:15:14.328Z,44.13
2022-11-13T21:18:02.949Z,44.42
2022-11-13T21:20:52.989Z,44.39
2022-11-13T21:23:41.849Z,44.45
2022-11-13T21:26:30.445Z,44.11
2022-11-13T21:29:19.001Z,44.29
2022-11-13T21:32:07.849Z,44.28
2022-11-13T21:34:59.175Z,43.95
2022-11-13T21:37:49.268Z,44.26
2022-11-13T21:40:38.488Z,44.14
2022-11-13T21:43:27.053Z,44.03
2022-11-13T21:46:15.938Z,44.13
2022-11-13T21:49:07.039Z,44.30
2022-11-13T21:51:55.655Z,44.07
2022-11-13T21:54:45.543Z,44.56
2022-11-13T21:57:34.200Z,44.21
2022-11-13T22:00:22.976Z,43.64
2022-11-13T22:03:11.739Z,43.45
2022-11-13T22:06:17.135Z,43.44
2022-11-13T22:09:08.021Z,43.12
2022-11-13T22:11:58.117Z,43.03
2022-11-13T22:14:46.831Z,42.91
2022-11-13T22:17:35.458Z,42.72
2022-11-13T22:20:24.206Z,42.83
2022-11-13T22:23:12.839Z,42.48
2022-11-13T22:26:03.194Z,42.77
2022-11-13T22:28:54.090Z,42.65
2022-11-13T22:31:44.792Z,42.42
2022-11-13T22:34:33.485Z,42.57
2022-11-13T22:37:22.181Z,42.38
2022-11-13T22:40:11.836Z,42.33
2022-11-13T22:43:03.309Z,42.58
2022-11-13T22:45:53.345Z,42.23
2022-11-13T22:48:43.983Z,42.15
2022-11-13T22:51:35.090Z,42.17
2022-11-13T22:54:23.848Z,42.10
2022-11-13T22:57:12.560Z,42.19
2022-11-13T23:00:09.263Z,42.21
2022-11-13T23:03:01.630Z,42.20
2022-11-13T23:05:50.337Z,41.81
2022-11-13T23:08:40.313Z,42.17
2022-11-13T23:11:31.517Z,42.14
2022-11-13T23:14:20.198Z,42.02
2022-11-13T23:17:13.687Z,42.21
2022-11-13T23:20:03.761Z,43.35
2022-11-13T23:22:52.391Z,43.63
2022-11-13T23:25:41.782Z,43.80
2022-11-13T23:28:31.202Z,44.09
2022-11-13T23:31:20.090Z,44.21
2022-11-13T23:34:08.742Z,44.26
2022-11-13T23:36:58.753Z,44.41
2022-11-13T23:39:47.408Z,44.46
2022-11-13T23:42:54.234Z,44.69
2022-11-13T23:45:44.291Z,44.55
2022-11-13T23:48:32.930Z,44.62
2022-11-13T23:51:21.610Z,44.63
2022-11-13T23:54:11.882Z,44.60
2022-11-13T23:57:00.568Z,44.89
2022-11-13T23:59:49.487Z,44.77
